Time;durP1;ratioP1;P1;durP2;ratioP2;P2;SDS_P1;SDS_P2;PMS_P1;PMS_P2;Temp;Humidity;BMP_temperature;BMP_pressure;BME280_temperature;BME280_humidity;BME280_pressure;Samples;Min_cycle;Max_cycle;Signal;HPM_P1;HPM_P2
2022/10/01 00:00:12;;;;;;;;;;;11.00;99.90;;;;;;5105622;27;19916;-85
2022/10/01 00:02:38;;;;;;;;;;;11.00;99.90;;;;;;5110452;28;20268;-74
2022/10/01 00:05:09;;;;;;;;;;;11.00;99.90;;;;;;5101964;27;21209;-75
2022/10/01 00:07:39;;;;;;;;;;;11.00;99.90;;;;;;5126093;27;19938;-76
2022/10/01 00:10:05;;;;;;;;;;;11.00;99.90;;;;;;5118132;27;19916;-74
2022/10/01 00:12:31;;;;;;;;;;;11.00;99.90;;;;;;5127292;27;20306;-74
2022/10/01 00:14:56;;;;;;;;;;;11.00;99.90;;;;;;5121539;27;19984;-76
2022/10/01 00:17:23;;;;;;;;;;;11.00;99.90;;;;;;5129487;27;20321;-75
2022/10/01 00:19:48;;;;;;;;;;;11.00;99.90;;;;;;5104437;27;19919;-74
2022/10/01 00:22:14;;;;;;;;;;;11.00;99.90;;;;;;5128777;27;19915;-74
2022/10/01 00:24:40;;;;;;;;;;;11.00;99.90;;;;;;5129659;27;19927;-73
2022/10/01 00:27:05;;;;;;;;;;;10.90;99.90;;;;;;5107182;28;19915;-82
2022/10/01 00:29:31;;;;;;;;;;;11.00;99.90;;;;;;5126454;27;19915;-74
2022/10/01 00:31:57;;;;;;;;;;;11.00;99.90;;;;;;5101976;28;19974;-76
2022/10/01 00:34:23;;;;;;;;;;;11.00;99.90;;;;;;5127106;27;20310;-73
2022/10/01 00:36:49;;;;;;;;;;;11.00;99.90;;;;;;5127962;27;19916;-73
2022/10/01 00:39:15;;;;;;;;;;;11.00;99.90;;;;;;5127304;27;19912;-75
2022/10/01 00:41:41;;;;;;;;;;;11.00;99.90;;;;;;5123456;27;20006;-77
2022/10/01 00:44:25;;;;;;;;;;;11.00;99.90;;;;;;5113773;27;20322;-74
2022/10/01 00:46:51;;;;;;;;;;;11.10;99.90;;;;;;5119770;27;19919;-78
2022/10/01 00:49:19;;;;;;;;;;;11.10;99.90;;;;;;5123232;27;19911;-77
2022/10/01 00:51:50;;;;;;;;;;;11.10;99.90;;;;;;5123919;27;19977;-76
2022/10/01 00:54:17;;;;;;;;;;;11.10;99.90;;;;;;5116451;27;19919;-74
2022/10/01 00:56:43;;;;;;;;;;;11.10;99.90;;;;;;5117890;27;20004;-74
2022/10/01 00:59:10;;;;;;;;;;;11.10;99.90;;;;;;5128295;27;20337;-76
2022/10/01 01:01:36;;;;;;;;;;;11.10;99.90;;;;;;5124843;27;19911;-74
2022/10/01 01:04:01;;;;;;;;;;;11.10;99.90;;;;;;5133173;27;20256;-77
2022/10/01 01:06:27;;;;;;;;;;;11.10;99.90;;;;;;5111323;27;19916;-86
2022/10/01 01:08:54;;;;;;;;;;;11.20;99.90;;;;;;5119051;27;19916;-77
2022/10/01 01:11:28;;;;;;;;;;;11.20;99.90;;;;;;5128920;27;19950;-74
2022/10/01 01:14:02;;;;;;;;;;;11.10;99.90;;;;;;5110927;27;19968;-75
2022/10/01 01:16:34;;;;;;;;;;;11.10;99.90;;;;;;5102303;28;19947;-74
2022/10/01 01:19:23;;;;;;;;;;;11.10;99.90;;;;;;5128485;27;19915;-74
2022/10/01 01:21:52;;;;;;;;;;;11.10;99.90;;;;;;5126159;27;19916;-73
2022/10/01 01:24:18;;;;;;;;;;;11.10;99.90;;;;;;5130736;27;19915;-75
2022/10/01 01:26:47;;;;;;;;;;;11.00;99.90;;;;;;5109629;28;20230;-75
2022/10/01 01:29:18;;;;;;;;;;;11.10;99.90;;;;;;5130261;27;19915;-75
2022/10/01 01:31:45;;;;;;;;;;;11.10;99.90;;;;;;5123596;27;19924;-73
2022/10/01 01:34:13;;;;;;;;;;;11.00;99.90;;;;;;5106284;28;20233;-78
2022/10/01 01:36:41;;;;;;;;;;;11.10;99.90;;;;;;5120818;27;19916;-74
2022/10/01 01:39:08;;;;;;;;;;;11.10;99.90;;;;;;5123575;27;20466;-75
2022/10/01 01:41:35;;;;;;;;;;;11.10;99.90;;;;;;5126019;27;19935;-74
2022/10/01 01:44:02;;;;;;;;;;;11.10;99.90;;;;;;5134361;27;19919;-74
2022/10/01 01:46:32;;;;;;;;;;;11.10;99.90;;;;;;5131061;27;19919;-75
2022/10/01 01:48:59;;;;;;;;;;;11.10;99.90;;;;;;5122587;27;19961;-75
2022/10/01 01:51:34;;;;;;;;;;;11.20;99.90;;;;;;5110003;27;19915;-75
2022/10/01 01:54:00;;;;;;;;;;;11.20;99.90;;;;;;5127000;27;20376;-76
2022/10/01 01:56:26;;;;;;;;;;;11.20;99.90;;;;;;5134660;27;19912;-74
2022/10/01 01:58:55;;;;;;;;;;;11.20;99.90;;;;;;5126942;27;19922;-76
2022/10/01 02:01:40;;;;;;;;;;;11.20;99.90;;;;;;5111717;27;19920;-75
2022/10/01 02:04:15;;;;;;;;;;;11.30;99.90;;;;;;5133076;27;20097;-78
2022/10/01 02:06:44;;;;;;;;;;;11.30;99.90;;;;;;5118013;27;19923;-72
2022/10/01 02:09:32;;;;;;;;;;;11.30;99.90;;;;;;5129730;27;19915;-72
2022/10/01 02:12:06;;;;;;;;;;;11.30;99.90;;;;;;5106681;28;20313;-72
2022/10/01 02:14:51;;;;;;;;;;;11.40;99.90;;;;;;5107875;27;20322;-75
2022/10/01 02:17:20;;;;;;;;;;;11.40;99.90;;;;;;5143452;27;19936;-81
2022/10/01 02:19:54;;;;;;;;;;;11.40;99.90;;;;;;5122432;27;19912;-72
2022/10/01 02:22:31;;;;;;;;;;;11.40;99.90;;;;;;5127406;27;19911;-72
2022/10/01 02:24:58;;;;;;;;;;;11.40;99.90;;;;;;5130401;27;19911;-71
2022/10/01 02:27:50;;;;;;;;;;;11.40;99.90;;;;;;5135276;27;20311;-79
2022/10/01 02:30:16;;;;;;;;;;;11.40;99.90;;;;;;5128702;27;19912;-71
2022/10/01 02:32:44;;;;;;;;;;;11.40;99.90;;;;;;5128305;27;20041;-72
2022/10/01 02:35:11;;;;;;;;;;;11.40;99.90;;;;;;5127902;27;19998;-74
2022/10/01 02:37:38;;;;;;;;;;;11.50;99.90;;;;;;5130515;27;19915;-72
2022/10/01 02:40:05;;;;;;;;;;;11.50;99.90;;;;;;5129144;27;19918;-73
2022/10/01 02:42:32;;;;;;;;;;;11.50;99.90;;;;;;5129272;27;19919;-72
2022/10/01 02:45:01;;;;;;;;;;;11.50;99.90;;;;;;5134368;27;19915;-73
2022/10/01 02:47:32;;;;;;;;;;;11.50;99.90;;;;;;5131920;27;22300;-77
2022/10/01 02:49:59;;;;;;;;;;;11.50;99.90;;;;;;5130549;27;19912;-72
2022/10/01 02:52:40;;;;;;;;;;;11.60;99.90;;;;;;5131479;27;20010;-72
2022/10/01 02:55:09;;;;;;;;;;;11.60;99.90;;;;;;5084062;28;19920;-76
2022/10/01 02:57:35;;;;;;;;;;;11.70;99.90;;;;;;5078637;28;20001;-77
2022/10/01 03:00:07;;;;;;;;;;;11.70;99.90;;;;;;5076717;28;20065;-76
2022/10/01 03:02:32;;;;;;;;;;;11.70;99.90;;;;;;5087218;28;19949;-75
2022/10/01 03:04:58;;;;;;;;;;;11.70;99.90;;;;;;5091875;28;20010;-73
2022/10/01 03:07:25;;;;;;;;;;;11.80;99.90;;;;;;5076966;28;20208;-73
2022/10/01 03:09:51;;;;;;;;;;;11.70;99.90;;;;;;5080668;28;19942;-77
2022/10/01 03:12:17;;;;;;;;;;;11.80;99.90;;;;;;5077865;28;20254;-74
2022/10/01 03:14:43;;;;;;;;;;;11.80;99.90;;;;;;5078792;28;19928;-74
2022/10/01 03:17:10;;;;;;;;;;;11.80;99.90;;;;;;5081624;27;20319;-73
2022/10/01 03:19:36;;;;;;;;;;;11.80;99.90;;;;;;5085674;28;20361;-74
2022/10/01 03:22:01;;;;;;;;;;;11.80;99.90;;;;;;5088387;28;19954;-73
2022/10/01 03:24:27;;;;;;;;;;;11.90;99.90;;;;;;5087296;28;19924;-74
2022/10/01 03:26:56;;;;;;;;;;;11.90;99.90;;;;;;5083844;28;19909;-76
2022/10/01 03:29:23;;;;;;;;;;;11.90;99.90;;;;;;5088026;28;20330;-75
2022/10/01 03:31:49;;;;;;;;;;;11.90;99.90;;;;;;5085320;28;19916;-73
2022/10/01 03:34:15;;;;;;;;;;;12.00;99.90;;;;;;5090377;28;19958;-74
2022/10/01 03:36:40;;;;;;;;;;;12.00;99.90;;;;;;5085091;28;19935;-73
2022/10/01 03:39:06;;;;;;;;;;;12.00;99.90;;;;;;5091625;28;19965;-73
2022/10/01 03:41:32;;;;;;;;;;;12.00;99.90;;;;;;5089188;28;20422;-73
2022/10/01 03:43:58;;;;;;;;;;;12.00;99.90;;;;;;5088294;28;20377;-77
2022/10/01 03:46:25;;;;;;;;;;;12.10;99.90;;;;;;5075765;28;19912;-73
2022/10/01 03:48:51;;;;;;;;;;;12.10;99.90;;;;;;5080161;28;19923;-73
2022/10/01 03:51:19;;;;;;;;;;;12.10;99.90;;;;;;5088871;28;19939;-72
2022/10/01 03:53:46;;;;;;;;;;;12.10;99.90;;;;;;5103011;27;19920;-73
2022/10/01 03:56:12;;;;;;;;;;;12.10;99.90;;;;;;5110073;27;19915;-74
2022/10/01 03:58:38;;;;;;;;;;;12.20;99.90;;;;;;5124133;27;20307;-74
2022/10/01 04:01:03;;;;;;;;;;;12.20;99.90;;;;;;5126408;27;19916;-76
2022/10/01 04:03:29;;;;;;;;;;;12.20;99.90;;;;;;5101733;27;19947;-74
2022/10/01 04:05:55;;;;;;;;;;;12.20;99.90;;;;;;5129026;27;19935;-73
2022/10/01 04:08:21;;;;;;;;;;;12.20;99.90;;;;;;5119857;27;19919;-73
2022/10/01 04:10:48;;;;;;;;;;;12.20;99.90;;;;;;5122696;27;19915;-74
2022/10/01 04:13:14;;;;;;;;;;;12.20;99.90;;;;;;5111588;27;19923;-74
2022/10/01 04:15:39;;;;;;;;;;;12.20;99.90;;;;;;5105259;28;19920;-74
2022/10/01 04:18:06;;;;;;;;;;;12.20;99.90;;;;;;5112607;27;19927;-72
2022/10/01 04:20:32;;;;;;;;;;;12.30;99.90;;;;;;5111442;27;19927;-73
2022/10/01 04:22:58;;;;;;;;;;;12.30;99.90;;;;;;5106275;27;19959;-73
2022/10/01 04:25:24;;;;;;;;;;;12.30;99.90;;;;;;5097298;27;19919;-75
2022/10/01 04:27:55;;;;;;;;;;;12.30;99.90;;;;;;5127745;27;19919;-74
2022/10/01 04:30:21;;;;;;;;;;;12.30;99.90;;;;;;5120683;27;19922;-74
2022/10/01 04:32:47;;;;;;;;;;;12.30;99.90;;;;;;5109053;27;20014;-74
2022/10/01 04:35:12;;;;;;;;;;;12.30;99.90;;;;;;5124656;27;20040;-74
2022/10/01 04:37:38;;;;;;;;;;;12.30;99.90;;;;;;5127887;27;20233;-73
2022/10/01 04:40:04;;;;;;;;;;;12.30;99.90;;;;;;5127556;27;20002;-73
2022/10/01 04:42:30;;;;;;;;;;;12.40;99.90;;;;;;5129038;27;20260;-73
2022/10/01 04:44:56;;;;;;;;;;;12.40;99.90;;;;;;5126716;27;19918;-76
2022/10/01 04:47:22;;;;;;;;;;;12.40;99.90;;;;;;5129055;27;20299;-74
2022/10/01 04:49:47;;;;;;;;;;;12.50;99.90;;;;;;5116354;27;19916;-73
2022/10/01 04:52:13;;;;;;;;;;;12.40;99.90;;;;;;5113557;27;20586;-75
2022/10/01 04:54:39;;;;;;;;;;;12.40;99.90;;;;;;5128185;27;20268;-73
2022/10/01 04:57:04;;;;;;;;;;;12.40;99.90;;;;;;5109767;27;19919;-74
2022/10/01 04:59:30;;;;;;;;;;;12.40;99.90;;;;;;5128489;27;19956;-73
2022/10/01 05:01:56;;;;;;;;;;;12.40;99.90;;;;;;5127646;27;19920;-73
2022/10/01 05:04:22;;;;;;;;;;;12.40;99.90;;;;;;5124467;27;20014;-73
2022/10/01 05:06:47;;;;;;;;;;;12.40;99.90;;;;;;5121741;27;19915;-73
2022/10/01 05:09:13;;;;;;;;;;;12.40;99.90;;;;;;5127231;27;20297;-74
2022/10/01 05:11:39;;;;;;;;;;;12.40;99.90;;;;;;5123088;28;19916;-75
2022/10/01 05:14:04;;;;;;;;;;;12.50;99.90;;;;;;5120319;27;19923;-74
2022/10/01 05:16:30;;;;;;;;;;;12.50;99.90;;;;;;5102142;27;19911;-73
2022/10/01 05:18:57;;;;;;;;;;;12.50;99.90;;;;;;5127117;27;19915;-74
2022/10/01 05:21:23;;;;;;;;;;;12.50;99.90;;;;;;5109927;28;19915;-74
2022/10/01 05:23:49;;;;;;;;;;;12.50;99.90;;;;;;5103054;28;19957;-73
2022/10/01 05:26:14;;;;;;;;;;;12.50;99.90;;;;;;5118546;27;20240;-73
2022/10/01 05:28:43;;;;;;;;;;;12.50;99.90;;;;;;5126031;27;19919;-73
2022/10/01 05:31:09;;;;;;;;;;;12.50;99.90;;;;;;5124650;28;19952;-74
2022/10/01 05:33:35;;;;;;;;;;;12.50;99.90;;;;;;5101561;27;19979;-73
2022/10/01 05:36:03;;;;;;;;;;;12.50;99.90;;;;;;5112402;27;20285;-73
2022/10/01 05:38:29;;;;;;;;;;;12.50;99.90;;;;;;5120981;27;19961;-73
2022/10/01 05:40:55;;;;;;;;;;;12.50;99.90;;;;;;5126039;27;20290;-73
2022/10/01 05:43:21;;;;;;;;;;;12.50;99.90;;;;;;5126165;28;19915;-73
2022/10/01 05:45:46;;;;;;;;;;;12.50;99.90;;;;;;5115570;27;19984;-73
2022/10/01 05:48:12;;;;;;;;;;;12.50;99.90;;;;;;5124842;27;19965;-74
2022/10/01 05:50:39;;;;;;;;;;;12.40;99.90;;;;;;5132487;27;20217;-73
2022/10/01 05:53:05;;;;;;;;;;;12.50;99.90;;;;;;5125053;27;19920;-73
2022/10/01 05:55:33;;;;;;;;;;;12.50;99.90;;;;;;5125808;27;19930;-74
2022/10/01 05:58:03;;;;;;;;;;;12.50;99.90;;;;;;5110881;28;19911;-73
2022/10/01 06:00:29;;;;;;;;;;;12.50;99.90;;;;;;5123244;27;20010;-71
2022/10/01 06:02:58;;;;;;;;;;;12.50;99.90;;;;;;5128591;27;19938;-72
2022/10/01 06:05:24;;;;;;;;;;;12.50;99.90;;;;;;5118565;27;20467;-73
2022/10/01 06:07:50;;;;;;;;;;;12.50;99.90;;;;;;5114419;27;19915;-75
2022/10/01 06:10:17;;;;;;;;;;;12.50;99.90;;;;;;5125702;27;19912;-72
2022/10/01 06:12:42;;;;;;;;;;;12.50;99.90;;;;;;5122480;27;20007;-73
2022/10/01 06:15:08;;;;;;;;;;;12.50;99.90;;;;;;5126459;27;19994;-72
2022/10/01 06:17:34;;;;;;;;;;;12.60;99.90;;;;;;5104851;27;19916;-73
2022/10/01 06:20:00;;;;;;;;;;;12.60;99.90;;;;;;5102858;27;19923;-73
2022/10/01 06:22:25;;;;;;;;;;;12.60;99.90;;;;;;5121256;27;20346;-73
2022/10/01 06:24:51;;;;;;;;;;;12.60;99.90;;;;;;5122374;27;19916;-73
2022/10/01 06:27:17;;;;;;;;;;;12.70;99.90;;;;;;5128702;27;19915;-72
2022/10/01 06:29:43;;;;;;;;;;;12.70;99.90;;;;;;5125705;27;20256;-73
2022/10/01 06:32:12;;;;;;;;;;;12.70;99.90;;;;;;5114712;27;19915;-74
2022/10/01 06:34:38;;;;;;;;;;;12.70;99.90;;;;;;5128659;27;19959;-73
2022/10/01 06:37:04;;;;;;;;;;;12.70;99.90;;;;;;5125416;27;19919;-73
2022/10/01 06:39:30;;;;;;;;;;;12.70;99.90;;;;;;5131264;27;19911;-73
2022/10/01 06:41:55;;;;;;;;;;;12.70;99.90;;;;;;5133410;27;20249;-72
2022/10/01 06:44:21;;;;;;;;;;;12.80;99.90;;;;;;5106382;27;19920;-73
2022/10/01 06:46:46;;;;;;;;;;;12.80;99.90;;;;;;5134830;27;19916;-73
2022/10/01 06:49:12;;;;;;;;;;;12.80;99.90;;;;;;5113322;27;20581;-73
2022/10/01 06:54:22;;;;;;;;;;;13.20;99.90;;;;;;5121905;27;19927;-73
2022/10/01 06:56:48;;;;;;;;;;;13.50;99.90;;;;;;5122267;27;19912;-73
2022/10/01 06:59:13;;;;;;;;;;;13.80;99.90;;;;;;5115981;27;19911;-73
2022/10/01 07:01:39;;;;;;;;;;;14.10;99.90;;;;;;5133601;27;19956;-73
2022/10/01 07:04:04;;;;;;;;;;;14.50;99.90;;;;;;5128632;27;19927;-73
2022/10/01 07:06:31;;;;;;;;;;;14.90;99.90;;;;;;5132267;27;20560;-72
2022/10/01 07:08:57;;;;;;;;;;;15.00;99.90;;;;;;5134229;27;19951;-72
2022/10/01 07:11:24;;;;;;;;;;;14.80;99.90;;;;;;5134676;27;19918;-73
2022/10/01 07:13:50;;;;;;;;;;;14.50;99.90;;;;;;5133495;27;19919;-74
2022/10/01 07:16:15;;;;;;;;;;;14.30;99.90;;;;;;5126759;27;19957;-74
2022/10/01 07:18:41;;;;;;;;;;;14.00;99.90;;;;;;5122537;27;19916;-74
2022/10/01 07:21:06;;;;;;;;;;;13.90;99.90;;;;;;5129922;27;19916;-71
2022/10/01 07:23:32;;;;;;;;;;;13.70;99.90;;;;;;5129896;27;20371;-72
2022/10/01 07:25:58;;;;;;;;;;;13.70;99.90;;;;;;5122149;27;19920;-73
2022/10/01 07:28:25;;;;;;;;;;;13.50;99.90;;;;;;5126296;27;20016;-73
2022/10/01 07:31:01;;;;;;;;;;;13.50;99.90;;;;;;5118940;27;19919;-75
2022/10/01 07:33:27;;;;;;;;;;;13.50;99.90;;;;;;5097945;27;19934;-73
2022/10/01 07:35:53;;;;;;;;;;;13.70;99.90;;;;;;5124459;27;19968;-72
2022/10/01 07:38:19;;;;;;;;;;;14.00;99.90;;;;;;5128710;27;19919;-74
2022/10/01 07:40:49;;;;;;;;;;;14.60;99.90;;;;;;5122658;27;19915;-72
2022/10/01 07:43:15;;;;;;;;;;;15.70;99.90;;;;;;5120431;27;19915;-71
2022/10/01 07:45:40;;;;;;;;;;;16.00;99.90;;;;;;5126957;27;19915;-73
2022/10/01 07:48:06;;;;;;;;;;;16.10;99.90;;;;;;5132698;27;19912;-72
2022/10/01 07:50:32;;;;;;;;;;;16.20;99.90;;;;;;5113277;27;19920;-71
2022/10/01 07:52:58;;;;;;;;;;;16.00;99.90;;;;;;5106876;28;19923;-72
2022/10/01 07:55:25;;;;;;;;;;;15.80;99.90;;;;;;5087957;27;19916;-72
2022/10/01 07:57:52;;;;;;;;;;;15.60;99.90;;;;;;5100431;27;19941;-72
2022/10/01 08:00:18;;;;;;;;;;;15.30;99.90;;;;;;5098466;28;20207;-72
2022/10/01 08:02:47;;;;;;;;;;;15.10;99.90;;;;;;5103990;27;19915;-72
2022/10/01 08:05:16;;;;;;;;;;;14.80;99.90;;;;;;5108188;28;19911;-72
2022/10/01 08:07:42;;;;;;;;;;;14.60;99.90;;;;;;5106121;27;19923;-72
2022/10/01 08:10:07;;;;;;;;;;;14.50;99.90;;;;;;5102710;27;19916;-72
2022/10/01 08:12:33;;;;;;;;;;;14.50;99.90;;;;;;5102147;27;20008;-73
2022/10/01 08:15:01;;;;;;;;;;;14.40;99.90;;;;;;5106933;27;19975;-73
2022/10/01 08:17:26;;;;;;;;;;;14.60;99.90;;;;;;5099799;27;19923;-72
2022/10/01 08:19:52;;;;;;;;;;;14.50;99.90;;;;;;5105268;28;19912;-73
2022/10/01 08:22:18;;;;;;;;;;;14.50;99.90;;;;;;5112289;27;19920;-72
2022/10/01 08:24:43;;;;;;;;;;;14.50;99.90;;;;;;5112636;28;20389;-72
2022/10/01 08:27:09;;;;;;;;;;;14.50;99.90;;;;;;5099865;27;19920;-73
2022/10/01 08:29:35;;;;;;;;;;;14.50;99.90;;;;;;5102979;28;19912;-72
2022/10/01 08:32:00;;;;;;;;;;;14.60;99.90;;;;;;5110027;28;19973;-73
2022/10/01 08:34:26;;;;;;;;;;;14.60;99.90;;;;;;5102376;27;20051;-72
2022/10/01 08:36:52;;;;;;;;;;;14.50;99.90;;;;;;5106568;27;19939;-73
2022/10/01 08:39:17;;;;;;;;;;;14.70;99.90;;;;;;5111465;28;19970;-72
2022/10/01 08:41:52;;;;;;;;;;;15.00;99.90;;;;;;5106724;27;19968;-74
2022/10/01 08:44:20;;;;;;;;;;;15.30;99.90;;;;;;5106611;27;19923;-73
2022/10/01 08:46:46;;;;;;;;;;;15.90;99.90;;;;;;5112440;28;19998;-72
2022/10/01 08:49:19;;;;;;;;;;;17.00;99.90;;;;;;5105370;27;19912;-75
2022/10/01 08:51:47;;;;;;;;;;;18.30;99.90;;;;;;5106978;27;19916;-75
2022/10/01 08:54:18;;;;;;;;;;;19.40;99.90;;;;;;5117203;27;20002;-74
2022/10/01 08:56:46;;;;;;;;;;;20.00;99.90;;;;;;5102653;27;19919;-74
2022/10/01 08:59:17;;;;;;;;;;;20.30;99.90;;;;;;5121233;27;19947;-74
2022/10/01 09:01:43;;;;;;;;;;;19.50;99.90;;;;;;5126240;27;19911;-73
2022/10/01 09:04:09;;;;;;;;;;;18.70;99.90;;;;;;5122183;27;19923;-74
2022/10/01 09:06:37;;;;;;;;;;;18.30;99.90;;;;;;5111249;27;19919;-75
2022/10/01 09:09:11;;;;;;;;;;;17.80;99.90;;;;;;5121299;27;19912;-73
2022/10/01 09:11:44;;;;;;;;;;;17.40;99.90;;;;;;5131426;27;19911;-74
2022/10/01 09:14:15;;;;;;;;;;;17.20;99.90;;;;;;5106680;28;19999;-73
2022/10/01 09:16:46;;;;;;;;;;;17.00;99.90;;;;;;5103889;28;19915;-75
2022/10/01 09:19:25;;;;;;;;;;;16.80;99.90;;;;;;5102134;28;19915;-74
2022/10/01 09:21:50;;;;;;;;;;;16.40;99.90;;;;;;5122143;27;19918;-74
2022/10/01 09:24:32;;;;;;;;;;;16.00;99.90;;;;;;5110738;27;19911;-74
2022/10/01 09:26:59;;;;;;;;;;;15.70;99.90;;;;;;5133506;27;19915;-73
2022/10/01 09:29:38;;;;;;;;;;;15.60;99.90;;;;;;5122355;27;20002;-74
2022/10/01 09:32:04;;;;;;;;;;;15.70;99.90;;;;;;5125070;27;20280;-73
2022/10/01 09:34:35;;;;;;;;;;;15.90;99.90;;;;;;5128022;27;19923;-75
2022/10/01 09:37:19;;;;;;;;;;;16.30;99.90;;;;;;5118883;27;20364;-73
2022/10/01 09:39:49;;;;;;;;;;;16.80;99.90;;;;;;5104256;28;19912;-73
2022/10/01 09:42:16;;;;;;;;;;;17.10;99.90;;;;;;5122466;27;19919;-73
2022/10/01 09:44:41;;;;;;;;;;;17.40;99.90;;;;;;5128545;27;20363;-73
2022/10/01 09:47:19;;;;;;;;;;;17.60;99.90;;;;;;5123502;27;19962;-74
2022/10/01 09:49:45;;;;;;;;;;;17.80;99.90;;;;;;5115102;28;19920;-73
2022/10/01 09:52:25;;;;;;;;;;;17.70;99.90;;;;;;5124680;27;19915;-73
2022/10/01 09:55:11;;;;;;;;;;;17.40;99.90;;;;;;5107640;28;19927;-74
2022/10/01 09:57:43;;;;;;;;;;;16.90;99.90;;;;;;5104234;27;19912;-73
2022/10/01 10:00:19;;;;;;;;;;;16.90;99.90;;;;;;5116105;27;19998;-74
2022/10/01 10:02:52;;;;;;;;;;;16.90;99.90;;;;;;5122405;27;19950;-73
2022/10/01 10:05:28;;;;;;;;;;;16.80;99.90;;;;;;5110754;27;19993;-74
2022/10/01 10:07:59;;;;;;;;;;;16.50;99.90;;;;;;5117963;27;19916;-74
2022/10/01 10:10:27;;;;;;;;;;;16.30;99.90;;;;;;5108336;27;20361;-74
2022/10/01 10:12:54;;;;;;;;;;;16.10;99.90;;;;;;5123147;27;19918;-72
2022/10/01 10:15:21;;;;;;;;;;;16.20;99.90;;;;;;5123727;27;19916;-75
2022/10/01 10:17:50;;;;;;;;;;;16.50;99.90;;;;;;5102752;27;20234;-74
2022/10/01 10:20:22;;;;;;;;;;;16.70;99.90;;;;;;5125331;27;20373;-73
2022/10/01 10:22:47;;;;;;;;;;;17.00;99.90;;;;;;5133698;27;20314;-75
2022/10/01 10:25:19;;;;;;;;;;;17.40;99.90;;;;;;5122488;27;19911;-75
2022/10/01 10:27:54;;;;;;;;;;;17.60;99.90;;;;;;5118544;27;19963;-73
2022/10/01 10:30:20;;;;;;;;;;;17.60;99.90;;;;;;5122520;27;19916;-73
2022/10/01 10:32:46;;;;;;;;;;;17.60;99.90;;;;;;5129300;27;19949;-75
2022/10/01 10:35:22;;;;;;;;;;;17.50;99.90;;;;;;5119525;27;19939;-73
2022/10/01 10:37:49;;;;;;;;;;;17.30;99.90;;;;;;5124840;27;19911;-74
2022/10/01 10:40:16;;;;;;;;;;;17.30;99.90;;;;;;5125626;27;19944;-73
2022/10/01 10:42:55;;;;;;;;;;;17.40;99.90;;;;;;5123088;27;20401;-73
2022/10/01 10:45:28;;;;;;;;;;;17.10;99.90;;;;;;5124425;27;20324;-73
2022/10/01 10:47:54;;;;;;;;;;;16.70;99.90;;;;;;5107837;27;19966;-73
2022/10/01 10:50:39;;;;;;;;;;;16.40;99.90;;;;;;5118657;27;19912;-77
2022/10/01 10:53:22;;;;;;;;;;;16.20;99.90;;;;;;5116355;28;19915;-73
2022/10/01 10:56:06;;;;;;;;;;;16.00;99.90;;;;;;5115787;28;19915;-74
2022/10/01 10:58:33;;;;;;;;;;;15.90;99.90;;;;;;5117295;27;19916;-73
2022/10/01 11:01:01;;;;;;;;;;;15.90;99.90;;;;;;5122544;27;20379;-74
2022/10/01 11:03:28;;;;;;;;;;;16.10;99.90;;;;;;5114444;27;19938;-72
2022/10/01 11:06:02;;;;;;;;;;;16.30;99.90;;;;;;5125270;27;19918;-73
2022/10/01 11:08:28;;;;;;;;;;;16.50;99.90;;;;;;5127221;27;19915;-75
2022/10/01 11:11:02;;;;;;;;;;;16.70;99.90;;;;;;5118465;27;19964;-74
2022/10/01 11:13:48;;;;;;;;;;;17.00;99.90;;;;;;5131618;27;20195;-73
2022/10/01 11:16:32;;;;;;;;;;;17.40;99.90;;;;;;5114147;27;19915;-72
2022/10/01 11:19:06;;;;;;;;;;;17.50;99.90;;;;;;5132681;27;19916;-73
2022/10/01 11:21:32;;;;;;;;;;;17.40;99.90;;;;;;5118633;27;19919;-73
2022/10/01 11:24:16;;;;;;;;;;;17.20;99.90;;;;;;5112777;27;19915;-73
2022/10/01 11:26:42;;;;;;;;;;;17.00;99.90;;;;;;5117819;27;19912;-73
2022/10/01 11:29:08;;;;;;;;;;;16.70;99.90;;;;;;5118136;27;20018;-75
2022/10/01 11:31:40;;;;;;;;;;;16.50;99.90;;;;;;5116305;27;19937;-74
2022/10/01 11:34:12;;;;;;;;;;;16.60;99.90;;;;;;5104333;28;19912;-75
2022/10/01 11:36:44;;;;;;;;;;;16.80;99.90;;;;;;5116546;28;19951;-73
2022/10/01 11:39:16;;;;;;;;;;;17.30;99.90;;;;;;5104225;27;20255;-74
2022/10/01 11:41:43;;;;;;;;;;;17.70;99.90;;;;;;5121087;27;20314;-74
2022/10/01 11:44:20;;;;;;;;;;;17.70;99.90;;;;;;5137006;27;20230;-74
2022/10/01 11:46:48;;;;;;;;;;;17.80;99.90;;;;;;5105031;27;19966;-73
2022/10/01 11:49:22;;;;;;;;;;;17.80;99.90;;;;;;5126413;27;19937;-72
2022/10/01 11:51:53;;;;;;;;;;;17.60;99.90;;;;;;5121648;27;20308;-73
2022/10/01 11:54:21;;;;;;;;;;;17.50;99.90;;;;;;5136627;27;19951;-74
2022/10/01 11:59:38;;;;;;;;;;;17.10;99.90;;;;;;5116547;28;19957;-73
2022/10/01 12:02:17;;;;;;;;;;;17.00;99.90;;;;;;5118388;27;20010;-73
2022/10/01 12:04:48;;;;;;;;;;;17.10;99.90;;;;;;5117235;27;19912;-73
2022/10/01 12:07:34;;;;;;;;;;;17.50;99.90;;;;;;5127055;27;20000;-72
2022/10/01 12:10:20;;;;;;;;;;;17.60;99.90;;;;;;5124344;27;20214;-72
2022/10/01 12:12:48;;;;;;;;;;;17.70;99.90;;;;;;5100750;27;19919;-73
2022/10/01 12:15:20;;;;;;;;;;;17.90;99.90;;;;;;5122570;27;20310;-73
2022/10/01 12:17:54;;;;;;;;;;;18.10;99.90;;;;;;5126938;27;20329;-72
2022/10/01 12:20:26;;;;;;;;;;;18.40;99.90;;;;;;5110254;27;19947;-73
2022/10/01 12:22:52;;;;;;;;;;;18.60;99.90;;;;;;5115991;27;19926;-73
2022/10/01 12:25:22;;;;;;;;;;;18.20;99.90;;;;;;5116863;27;19908;-72
2022/10/01 12:27:52;;;;;;;;;;;17.80;99.90;;;;;;5117488;27;19908;-74
2022/10/01 12:30:22;;;;;;;;;;;17.60;99.90;;;;;;5121415;27;19919;-74
2022/10/01 12:32:53;;;;;;;;;;;17.50;99.90;;;;;;5120855;27;19922;-74
2022/10/01 12:35:46;;;;;;;;;;;17.30;99.90;;;;;;5131242;27;19923;-71
2022/10/01 12:38:17;;;;;;;;;;;17.60;99.90;;;;;;5128282;27;19912;-71
2022/10/01 12:40:58;;;;;;;;;;;17.90;99.90;;;;;;5122816;27;19956;-72
2022/10/01 12:43:26;;;;;;;;;;;18.20;99.90;;;;;;5124234;27;20316;-73
2022/10/01 12:46:04;;;;;;;;;;;18.50;99.90;;;;;;5134328;27;19961;-73
2022/10/01 12:48:35;;;;;;;;;;;18.60;99.90;;;;;;5126175;27;19915;-72
2022/10/01 12:51:19;;;;;;;;;;;18.30;99.90;;;;;;5120581;27;19917;-74
2022/10/01 12:53:54;;;;;;;;;;;17.90;99.90;;;;;;5134367;27;19931;-71
2022/10/01 12:56:28;;;;;;;;;;;17.70;99.90;;;;;;5098315;28;19911;-74
2022/10/01 12:59:21;;;;;;;;;;;17.60;99.90;;;;;;5095775;28;19974;-73
2022/10/01 13:02:19;;;;;;;;;;;17.70;99.90;;;;;;5094324;28;20217;-73
2022/10/01 13:04:55;;;;;;;;;;;17.40;99.90;;;;;;5050805;28;19937;-73
2022/10/01 13:07:30;;;;;;;;;;;17.10;99.90;;;;;;5049958;28;20281;-74
2022/10/01 13:10:14;;;;;;;;;;;17.00;99.90;;;;;;5047150;28;19919;-73
2022/10/01 13:12:44;;;;;;;;;;;17.10;99.90;;;;;;5048101;28;19920;-73
2022/10/01 13:15:19;;;;;;;;;;;17.40;99.90;;;;;;5047842;28;20016;-73
2022/10/01 13:18:07;;;;;;;;;;;17.30;99.90;;;;;;5060779;28;20054;-72
2022/10/01 13:20:53;;;;;;;;;;;17.30;99.90;;;;;;5040805;28;20396;-72
2022/10/01 13:23:39;;;;;;;;;;;17.50;99.90;;;;;;5050071;28;19924;-74
2022/10/01 13:26:11;;;;;;;;;;;17.30;99.90;;;;;;5037743;28;19908;-74
2022/10/01 13:28:49;;;;;;;;;;;17.20;99.90;;;;;;5048498;28;19929;-78
2022/10/01 13:31:18;;;;;;;;;;;17.10;99.90;;;;;;5038739;28;20624;-74
2022/10/01 13:33:52;;;;;;;;;;;17.20;99.90;;;;;;5034922;28;19955;-73
2022/10/01 13:36:26;;;;;;;;;;;17.10;99.90;;;;;;5036254;28;19913;-72
2022/10/01 13:38:52;;;;;;;;;;;16.90;99.90;;;;;;5020771;28;19945;-74
2022/10/01 13:41:20;;;;;;;;;;;16.90;99.90;;;;;;5094196;28;19952;-76
2022/10/01 13:43:58;;;;;;;;;;;16.80;99.90;;;;;;5107117;28;19908;-74
2022/10/01 13:46:29;;;;;;;;;;;16.80;99.90;;;;;;5102096;28;20578;-74
2022/10/01 13:48:59;;;;;;;;;;;16.80;99.90;;;;;;5097140;28;20307;-73
2022/10/01 13:51:32;;;;;;;;;;;17.00;99.90;;;;;;5100260;28;19977;-74
2022/10/01 13:53:59;;;;;;;;;;;16.90;99.90;;;;;;5110986;28;19964;-76
2022/10/01 13:56:28;;;;;;;;;;;16.90;99.90;;;;;;5121018;27;19950;-73
2022/10/01 13:58:54;;;;;;;;;;;16.80;99.90;;;;;;5129678;27;19915;-76
2022/10/01 14:01:20;;;;;;;;;;;16.90;99.90;;;;;;5121898;27;20329;-73
2022/10/01 14:03:52;;;;;;;;;;;17.10;99.90;;;;;;5117531;28;19911;-75
2022/10/01 14:06:23;;;;;;;;;;;17.20;99.90;;;;;;5127463;27;19994;-73
2022/10/01 14:08:52;;;;;;;;;;;17.30;99.90;;;;;;5104693;27;20029;-73
2022/10/01 14:16:55;;;;;;;;;;;17.50;99.90;;;;;;5134591;27;19926;-74
2022/10/01 14:19:23;;;;;;;;;;;17.50;99.90;;;;;;5130505;27;19911;-74
2022/10/01 14:22:11;;;;;;;;;;;17.60;99.90;;;;;;5104749;28;19923;-74
2022/10/01 14:24:56;;;;;;;;;;;17.60;99.90;;;;;;5134071;27;19914;-74
2022/10/01 14:27:31;;;;;;;;;;;17.60;99.90;;;;;;5124537;27;19916;-74
2022/10/01 14:30:10;;;;;;;;;;;17.60;99.90;;;;;;5122760;27;20364;-73
2022/10/01 14:32:58;;;;;;;;;;;17.50;99.90;;;;;;5118435;28;20002;-73
2022/10/01 14:35:30;;;;;;;;;;;17.50;99.90;;;;;;5116029;27;20345;-73
2022/10/01 14:37:58;;;;;;;;;;;17.50;99.90;;;;;;5119168;27;20291;-74
2022/10/01 14:40:24;;;;;;;;;;;17.50;99.90;;;;;;5118625;27;19921;-74